Time;durP1;ratioP1;P1;durP2;ratioP2;P2;SDS_P1;SDS_P2;PMS_P1;PMS_P2;Temp;Humidity;BMP_temperature;BMP_pressure;BME280_temperature;BME280_humidity;BME280_pressure;Samples;Min_cycle;Max_cycle;Signal;HPM_P1;HPM_P2
2022/01/08 00:02:18;;;;;;;7.03;5.40;;;4.20;89.80;;;;;;4916412;29;20449;-48
2022/01/08 00:04:45;;;;;;;6.27;5.67;;;4.10;89.80;;;;;;4903388;29;20498;-49
2022/01/08 00:07:12;;;;;;;5.77;5.23;;;4.10;89.80;;;;;;4911546;29;20453;-49
2022/01/08 00:09:39;;;;;;;6.73;6.13;;;4.20;89.80;;;;;;4903251;29;20512;-49
2022/01/08 00:12:07;;;;;;;6.83;6.03;;;4.20;89.80;;;;;;4904789;29;20516;-49
2022/01/08 00:14:33;;;;;;;6.97;6.27;;;4.20;89.80;;;;;;4906315;29;20898;-49
2022/01/08 00:17:00;;;;;;;6.20;5.60;;;4.20;89.80;;;;;;4901963;29;20552;-49
2022/01/08 00:19:27;;;;;;;7.17;6.10;;;4.20;89.80;;;;;;4900035;29;20955;-49
2022/01/08 00:21:54;;;;;;;9.90;6.80;;;4.20;89.80;;;;;;4906579;29;20883;-49
2022/01/08 00:24:20;;;;;;;8.70;6.90;;;4.20;89.80;;;;;;4905598;29;20861;-49
2022/01/08 00:26:47;;;;;;;8.20;7.30;;;4.30;89.80;;;;;;4903811;29;20963;-50
2022/01/08 00:29:14;;;;;;;8.10;6.63;;;4.20;89.80;;;;;;4919443;29;20469;-49
2022/01/08 00:31:41;;;;;;;6.77;6.07;;;4.20;89.80;;;;;;4920820;29;20453;-50
2022/01/08 00:34:09;;;;;;;8.20;7.17;;;4.30;89.80;;;;;;4905853;29;20461;-49
2022/01/08 00:36:35;;;;;;;7.23;6.23;;;4.30;89.80;;;;;;4918829;29;20978;-49
2022/01/08 00:39:03;;;;;;;10.17;6.43;;;4.40;89.80;;;;;;4919669;29;20487;-49
2022/01/08 00:41:30;;;;;;;10.80;7.10;;;4.40;89.80;;;;;;4902749;29;20512;-49
2022/01/08 00:43:57;;;;;;;8.40;6.70;;;4.40;89.80;;;;;;4907117;29;20489;-49
2022/01/08 00:46:24;;;;;;;7.83;7.00;;;4.40;89.80;;;;;;4904279;29;21081;-49
2022/01/08 00:48:51;;;;;;;8.20;6.27;;;4.50;89.80;;;;;;4902980;29;20551;-49
2022/01/08 00:51:17;;;;;;;9.80;6.53;;;4.50;89.70;;;;;;4903749;29;20449;-49
2022/01/08 00:53:45;;;;;;;6.83;5.73;;;4.50;89.80;;;;;;4901729;29;20543;-49
2022/01/08 00:56:14;;;;;;;7.10;6.40;;;4.50;89.80;;;;;;4904680;29;20479;-48
2022/01/08 00:58:41;;;;;;;8.60;7.23;;;4.50;89.80;;;;;;4906261;29;20475;-48
2022/01/08 01:01:09;;;;;;;6.93;5.60;;;4.50;89.80;;;;;;4898338;29;20472;-49
2022/01/08 01:03:36;;;;;;;7.43;6.00;;;4.50;89.80;;;;;;4903836;29;20504;-49
2022/01/08 01:06:06;;;;;;;6.70;5.50;;;4.50;89.80;;;;;;4907020;29;20830;-48
2022/01/08 01:08:34;;;;;;;5.53;5.03;;;4.40;89.80;;;;;;4914792;29;20465;-49
2022/01/08 01:11:00;;;;;;;9.23;5.33;;;4.40;89.80;;;;;;4903783;29;20460;-48
2022/01/08 01:13:28;;;;;;;8.83;5.53;;;4.40;89.80;;;;;;4917652;29;20877;-48
2022/01/08 01:15:55;;;;;;;6.70;5.80;;;4.40;89.80;;;;;;4918062;29;20982;-49
2022/01/08 01:18:21;;;;;;;6.37;5.77;;;4.40;89.80;;;;;;4902763;29;20457;-49
2022/01/08 01:20:50;;;;;;;8.60;5.97;;;4.40;89.80;;;;;;4905076;29;20828;-49
2022/01/08 01:23:24;;;;;;;6.40;5.63;;;4.40;89.80;;;;;;4906689;29;20493;-49
2022/01/08 01:26:01;;;;;;;7.67;5.67;;;4.40;89.80;;;;;;4903254;29;20506;-49
2022/01/08 01:47:29;;;;;;;6.87;5.90;;;4.30;89.50;;;;;;4905124;29;21002;-48
2022/01/08 01:49:56;;;;;;;5.87;5.23;;;4.30;89.20;;;;;;4903674;29;20464;-48
2022/01/08 01:52:23;;;;;;;7.87;5.43;;;4.30;89.00;;;;;;4906592;29;20869;-48
2022/01/08 01:54:50;;;;;;;6.20;5.53;;;4.20;89.00;;;;;;4905965;29;20495;-47
2022/01/08 01:57:19;;;;;;;6.40;5.77;;;4.20;88.60;;;;;;4917965;29;20470;-48
2022/01/08 01:59:46;;;;;;;6.30;4.90;;;4.10;88.50;;;;;;4902875;29;20952;-48
2022/01/08 02:02:13;;;;;;;5.10;4.60;;;4.10;88.40;;;;;;4907833;29;20998;-48
2022/01/08 02:04:40;;;;;;;5.63;5.13;;;4.00;88.60;;;;;;4906989;29;20909;-48
2022/01/08 02:07:08;;;;;;;6.43;5.63;;;4.00;88.50;;;;;;4922201;29;20471;-48
2022/01/08 02:09:37;;;;;;;5.60;5.00;;;4.00;88.40;;;;;;4905484;29;20469;-48
2022/01/08 02:12:07;;;;;;;8.77;5.63;;;3.90;88.30;;;;;;4907736;29;20555;-48
2022/01/08 02:14:36;;;;;;;5.67;4.90;;;3.90;88.10;;;;;;4917219;29;20460;-48
2022/01/08 02:17:08;;;;;;;5.37;4.50;;;3.80;87.80;;;;;;4905517;29;20472;-48
2022/01/08 02:19:35;;;;;;;6.10;5.27;;;3.80;88.20;;;;;;4906272;29;20483;-49
2022/01/08 02:22:03;;;;;;;8.10;5.03;;;3.80;88.10;;;;;;4905300;29;20469;-48
2022/01/08 02:24:31;;;;;;;5.87;5.27;;;3.80;88.10;;;;;;4906315;29;20509;-47
2022/01/08 02:26:58;;;;;;;5.50;4.60;;;3.70;88.00;;;;;;4905314;29;20560;-48
2022/01/08 02:29:27;;;;;;;6.13;5.37;;;3.70;88.00;;;;;;4908294;29;20843;-48
2022/01/08 02:31:59;;;;;;;7.40;5.37;;;3.60;88.30;;;;;;4920126;29;20468;-48
2022/01/08 02:34:27;;;;;;;8.33;6.07;;;3.60;88.30;;;;;;4906534;29;20484;-49
2022/01/08 02:36:55;;;;;;;7.90;5.60;;;3.50;88.30;;;;;;4909187;29;20492;-49
2022/01/08 02:39:22;;;;;;;6.07;5.30;;;3.50;88.30;;;;;;4903433;29;20881;-49
2022/01/08 02:41:54;;;;;;;11.77;6.90;;;3.40;88.40;;;;;;4908181;29;20596;-49
2022/01/08 02:44:21;;;;;;;7.13;5.57;;;3.40;88.50;;;;;;4906509;29;21516;-49
2022/01/08 02:46:48;;;;;;;6.07;5.00;;;3.40;88.40;;;;;;4907899;29;20967;-49
2022/01/08 02:49:15;;;;;;;5.57;5.07;;;3.40;88.20;;;;;;4905065;29;20469;-49
2022/01/08 02:51:42;;;;;;;5.60;4.50;;;3.40;88.00;;;;;;4918157;29;20475;-48
2022/01/08 02:54:10;;;;;;;6.77;4.37;;;3.30;87.70;;;;;;4906828;29;20698;-49
2022/01/08 02:56:39;;;;;;;5.23;4.13;;;3.30;88.10;;;;;;4906408;29;20464;-49
2022/01/08 02:59:06;;;;;;;3.53;3.10;;;3.30;88.20;;;;;;4906077;29;20472;-49
2022/01/08 03:01:34;;;;;;;3.10;2.90;;;3.20;88.40;;;;;;4921275;29;20468;-49
2022/01/08 03:04:02;;;;;;;2.97;2.77;;;3.10;88.50;;;;;;4904351;29;20508;-49
2022/01/08 03:06:30;;;;;;;4.43;3.47;;;3.10;88.80;;;;;;4904089;29;20956;-49
2022/01/08 03:08:56;;;;;;;3.53;2.97;;;3.10;89.10;;;;;;4908653;29;20464;-49
2022/01/08 03:11:23;;;;;;;3.00;2.70;;;3.10;89.20;;;;;;4904121;29;20462;-49
2022/01/08 03:13:50;;;;;;;3.50;3.07;;;3.10;89.20;;;;;;4907901;29;20460;-49
2022/01/08 03:16:17;;;;;;;3.13;2.93;;;3.10;89.40;;;;;;4903935;29;20473;-49
2022/01/08 03:18:47;;;;;;;3.20;2.97;;;3.20;89.20;;;;;;4906669;29;20469;-48
2022/01/08 03:21:17;;;;;;;3.87;2.93;;;3.10;89.20;;;;;;4904673;29;20477;-49
2022/01/08 03:23:55;;;;;;;2.77;2.53;;;3.10;89.20;;;;;;4901559;29;20501;-48
2022/01/08 03:26:24;;;;;;;2.27;2.07;;;3.10;89.20;;;;;;4904837;29;20474;-48
2022/01/08 03:28:52;;;;;;;2.60;2.30;;;3.10;89.30;;;;;;4906916;29;20463;-48
2022/01/08 03:31:19;;;;;;;2.60;2.40;;;3.10;89.30;;;;;;4904946;29;20466;-48
2022/01/08 03:33:46;;;;;;;2.53;2.30;;;3.20;89.20;;;;;;4902214;29;20491;-49
2022/01/08 03:36:14;;;;;;;2.00;1.90;;;3.20;89.00;;;;;;4923479;29;20943;-49
2022/01/08 03:38:41;;;;;;;2.30;1.90;;;3.10;89.30;;;;;;4908256;29;20469;-49
2022/01/08 03:41:08;;;;;;;2.13;1.97;;;3.10;89.30;;;;;;4903380;29;20463;-49
2022/01/08 03:43:35;;;;;;;2.40;2.30;;;3.10;89.30;;;;;;4904906;29;21099;-49
2022/01/08 03:46:04;;;;;;;1.87;1.77;;;3.10;89.40;;;;;;4891529;29;20461;-49
2022/01/08 03:48:45;;;;;;;1.83;1.67;;;3.10;89.20;;;;;;4904862;29;20468;-49
2022/01/08 03:51:14;;;;;;;2.07;1.87;;;3.10;89.10;;;;;;4902399;29;20475;-49
2022/01/08 03:53:42;;;;;;;2.00;1.77;;;3.10;89.20;;;;;;4906912;29;20457;-52
2022/01/08 03:56:08;;;;;;;1.80;1.70;;;3.10;89.30;;;;;;4906540;29;20457;-50
2022/01/08 03:58:35;;;;;;;1.77;1.67;;;3.20;89.20;;;;;;4906192;29;20458;-50
2022/01/08 04:01:03;;;;;;;1.80;1.60;;;3.20;89.10;;;;;;4902491;29;20472;-49
2022/01/08 04:03:30;;;;;;;2.43;1.60;;;3.20;89.00;;;;;;4906339;29;20498;-49
2022/01/08 04:05:57;;;;;;;1.80;1.70;;;3.10;89.20;;;;;;4921336;29;20529;-49
2022/01/08 04:08:23;;;;;;;3.00;1.77;;;3.10;89.20;;;;;;4920477;29;20461;-49
2022/01/08 04:10:50;;;;;;;4.73;3.30;;;3.10;89.20;;;;;;4905254;29;20469;-49
2022/01/08 04:13:25;;;;;;;6.00;4.17;;;3.10;89.20;;;;;;4907060;29;21175;-49
2022/01/08 04:15:56;;;;;;;1.70;1.60;;;3.10;89.20;;;;;;4902904;29;20496;-49
2022/01/08 04:18:23;;;;;;;1.63;1.53;;;3.10;89.00;;;;;;4903733;29;20477;-49
2022/01/08 04:21:04;;;;;;;2.40;2.20;;;3.10;89.10;;;;;;4904606;29;20472;-49
2022/01/08 04:23:31;;;;;;;1.30;1.20;;;3.10;89.20;;;;;;4906397;29;20503;-49
2022/01/08 04:25:58;;;;;;;1.40;1.30;;;3.10;89.40;;;;;;4905343;29;20503;-49
2022/01/08 04:28:25;;;;;;;1.90;1.13;;;3.10;89.30;;;;;;4902229;29;20480;-49
2022/01/08 04:30:52;;;;;;;0.70;0.70;;;3.10;89.20;;;;;;4907269;29;20464;-49
2022/01/08 04:33:19;;;;;;;1.03;0.90;;;3.10;89.30;;;;;;4902052;29;20461;-49
2022/01/08 04:35:46;;;;;;;0.80;0.80;;;3.20;89.30;;;;;;4906701;29;20473;-50
2022/01/08 04:38:13;;;;;;;0.43;0.43;;;3.20;89.20;;;;;;4902507;29;21023;-49
2022/01/08 04:40:40;;;;;;;0.80;0.60;;;3.10;89.40;;;;;;4903890;29;20477;-50
2022/01/08 04:43:07;;;;;;;1.73;0.70;;;3.10;89.40;;;;;;4904307;29;20469;-49
2022/01/08 04:45:34;;;;;;;0.53;0.50;;;3.10;89.30;;;;;;4919245;29;20524;-50
2022/01/08 04:48:01;;;;;;;0.60;0.60;;;3.10;89.20;;;;;;4901300;29;20462;-49
2022/01/08 04:50:29;;;;;;;0.80;0.53;;;3.20;89.70;;;;;;4920144;29;21458;-50
2022/01/08 04:52:57;;;;;;;3.90;0.70;;;3.10;89.70;;;;;;4905151;29;20466;-50
2022/01/08 04:55:24;;;;;;;1.10;0.40;;;3.10;89.80;;;;;;4903428;29;21031;-50
2022/01/08 04:57:51;;;;;;;0.63;0.53;;;3.10;89.80;;;;;;4901923;29;20989;-50
2022/01/08 05:00:20;;;;;;;0.73;0.70;;;3.20;89.80;;;;;;4918782;29;20462;-50
2022/01/08 05:02:47;;;;;;;0.70;0.50;;;3.20;89.80;;;;;;4901932;29;20473;-50
2022/01/08 05:05:14;;;;;;;2.63;0.50;;;3.20;89.60;;;;;;4903384;29;20501;-50
2022/01/08 05:07:41;;;;;;;0.40;0.40;;;3.20;89.60;;;;;;4904836;29;20884;-50
2022/01/08 05:10:08;;;;;;;0.50;0.50;;;3.20;89.60;;;;;;4916995;29;20986;-50
2022/01/08 05:12:36;;;;;;;0.67;0.60;;;3.20;89.50;;;;;;4915748;29;20476;-50
2022/01/08 05:15:03;;;;;;;0.70;0.50;;;3.10;89.70;;;;;;4902713;29;20492;-50
2022/01/08 05:17:39;;;;;;;0.90;0.77;;;3.10;89.70;;;;;;4908282;29;20983;-50
2022/01/08 05:20:12;;;;;;;0.70;0.53;;;3.20;89.60;;;;;;4904271;29;20508;-50
2022/01/08 05:22:59;;;;;;;0.67;0.50;;;3.10;89.70;;;;;;4901216;29;20496;-50
2022/01/08 05:25:28;;;;;;;1.63;0.67;;;3.10;89.60;;;;;;4918061;29;20496;-50
2022/01/08 05:27:55;;;;;;;0.87;0.60;;;3.10;89.80;;;;;;4905772;29;20456;-50
2022/01/08 05:30:24;;;;;;;0.80;0.80;;;3.10;89.80;;;;;;4902430;29;21857;-50
2022/01/08 05:32:51;;;;;;;2.77;0.87;;;3.20;89.70;;;;;;4907122;29;20464;-50
2022/01/08 05:35:19;;;;;;;1.43;0.70;;;3.20;89.40;;;;;;4902090;29;20561;-50
2022/01/08 05:37:46;;;;;;;2.07;0.90;;;3.20;89.40;;;;;;4908012;29;20465;-50
2022/01/08 05:40:13;;;;;;;1.13;1.03;;;3.20;89.20;;;;;;4906701;29;20480;-51
2022/01/08 05:42:40;;;;;;;1.50;1.40;;;3.20;89.10;;;;;;4905903;29;20467;-50
2022/01/08 05:45:07;;;;;;;1.70;1.53;;;3.20;88.60;;;;;;4909033;29;21030;-50
2022/01/08 05:47:35;;;;;;;3.30;2.77;;;3.20;88.70;;;;;;4908558;29;20938;-50
2022/01/08 05:50:04;;;;;;;2.50;2.30;;;3.20;89.10;;;;;;4912006;29;20493;-50
2022/01/08 05:52:31;;;;;;;4.33;3.53;;;3.20;89.30;;;;;;4908448;29;20460;-50
2022/01/08 05:54:58;;;;;;;3.03;2.20;;;3.20;89.40;;;;;;4907980;29;20498;-51
2022/01/08 05:57:24;;;;;;;3.60;2.80;;;3.20;89.60;;;;;;4904723;29;20485;-50
2022/01/08 05:59:51;;;;;;;3.60;2.97;;;3.20;89.70;;;;;;4904707;29;20880;-50
2022/01/08 06:02:18;;;;;;;5.07;3.80;;;3.20;89.70;;;;;;4909592;29;20563;-50
2022/01/08 06:04:45;;;;;;;4.17;3.40;;;3.20;89.70;;;;;;4909997;29;20492;-50
2022/01/08 06:07:14;;;;;;;4.80;3.60;;;3.20;89.70;;;;;;4909079;29;21038;-50
2022/01/08 06:09:40;;;;;;;3.87;3.50;;;3.20;89.70;;;;;;4909644;29;20970;-50
2022/01/08 06:12:08;;;;;;;4.27;3.70;;;3.20;89.40;;;;;;4905988;29;20974;-50
2022/01/08 06:14:35;;;;;;;6.13;5.27;;;3.10;89.60;;;;;;4909295;29;21030;-50
2022/01/08 06:17:03;;;;;;;5.07;3.20;;;3.20;89.60;;;;;;4904315;29;20472;-50
2022/01/08 06:19:29;;;;;;;5.70;4.10;;;3.20;89.30;;;;;;4900517;29;20503;-50
2022/01/08 06:21:56;;;;;;;7.13;4.67;;;3.20;89.30;;;;;;4911894;29;20466;-50
2022/01/08 06:24:23;;;;;;;5.50;4.77;;;3.20;89.10;;;;;;4906284;29;20489;-50
2022/01/08 06:26:51;;;;;;;8.53;5.40;;;3.10;89.00;;;;;;4903894;29;20468;-50
2022/01/08 06:29:17;;;;;;;4.83;4.37;;;3.10;89.00;;;;;;4906007;29;21014;-50
2022/01/08 06:31:44;;;;;;;5.17;4.43;;;3.10;89.10;;;;;;4908003;29;20464;-50
2022/01/08 06:34:11;;;;;;;6.53;4.60;;;3.10;89.00;;;;;;4901886;29;20456;-50
2022/01/08 06:36:38;;;;;;;5.37;4.80;;;3.00;89.20;;;;;;4907496;29;20873;-50
2022/01/08 06:39:05;;;;;;;5.67;4.10;;;3.00;89.20;;;;;;4905264;29;20483;-49
2022/01/08 06:41:31;;;;;;;5.43;4.93;;;3.00;89.10;;;;;;4901578;29;20476;-50
2022/01/08 06:43:58;;;;;;;6.83;5.20;;;3.00;89.00;;;;;;4904846;29;20559;-49
2022/01/08 06:46:25;;;;;;;8.23;5.67;;;3.00;88.80;;;;;;4914980;29;20592;-50
2022/01/08 06:48:52;;;;;;;7.20;5.53;;;3.00;88.70;;;;;;4906039;29;20971;-50
2022/01/08 06:51:19;;;;;;;7.00;5.33;;;3.00;88.80;;;;;;4905732;29;20948;-50
2022/01/08 06:53:46;;;;;;;5.10;4.60;;;2.90;89.00;;;;;;4905151;29;20476;-50
2022/01/08 06:56:13;;;;;;;8.33;6.40;;;2.90;89.00;;;;;;4902815;29;21042;-50
2022/01/08 06:58:41;;;;;;;8.40;6.00;;;3.00;88.90;;;;;;4905767;29;20461;-50
2022/01/08 07:01:08;;;;;;;6.43;5.43;;;3.00;89.00;;;;;;4901677;29;21114;-49
2022/01/08 07:03:35;;;;;;;9.23;6.53;;;2.90;88.90;;;;;;4904501;29;20545;-49
2022/01/08 07:06:02;;;;;;;16.43;9.47;;;3.00;88.80;;;;;;4901392;29;21001;-50
2022/01/08 07:08:29;;;;;;;19.07;11.67;;;2.90;88.80;;;;;;4904989;29;20461;-48
2022/01/08 07:10:56;;;;;;;9.90;7.87;;;3.00;88.70;;;;;;4903938;29;20469;-51
2022/01/08 07:13:23;;;;;;;9.83;8.10;;;2.90;88.70;;;;;;4905093;29;20492;-49
2022/01/08 07:15:50;;;;;;;14.87;10.03;;;2.90;89.00;;;;;;4909413;29;20840;-49
2022/01/08 07:18:16;;;;;;;11.70;9.63;;;2.90;89.30;;;;;;4904066;29;20484;-50
2022/01/08 07:20:43;;;;;;;10.63;7.77;;;2.90;89.40;;;;;;4906720;29;20458;-50
2022/01/08 07:23:10;;;;;;;7.93;7.00;;;2.90;89.60;;;;;;4918728;29;21014;-49
2022/01/08 07:25:37;;;;;;;8.90;6.37;;;2.90;89.60;;;;;;4902659;29;20512;-50
2022/01/08 07:28:04;;;;;;;6.63;5.93;;;3.00;89.60;;;;;;4900708;29;20455;-50
2022/01/08 07:30:31;;;;;;;11.50;7.47;;;3.00;89.40;;;;;;4901736;29;20460;-50
2022/01/08 07:32:58;;;;;;;8.77;6.50;;;3.00;89.60;;;;;;4901758;29;20465;-50
2022/01/08 07:35:25;;;;;;;8.80;6.87;;;3.00;89.50;;;;;;4906674;29;20989;-50
2022/01/08 07:37:52;;;;;;;12.17;8.37;;;3.00;89.70;;;;;;4904051;29;20464;-50
2022/01/08 07:40:20;;;;;;;13.13;7.30;;;3.00;89.60;;;;;;4902421;29;20519;-50
2022/01/08 07:42:48;;;;;;;10.33;6.60;;;3.00;89.30;;;;;;4899632;29;20479;-50
2022/01/08 07:45:16;;;;;;;16.77;5.23;;;3.00;89.40;;;;;;4902842;29;20493;-50
2022/01/08 07:47:43;;;;;;;5.13;4.63;;;3.10;89.10;;;;;;4904538;29;20476;-50
2022/01/08 07:50:10;;;;;;;8.87;5.30;;;3.10;88.90;;;;;;4901473;29;20470;-50
2022/01/08 07:52:39;;;;;;;5.53;4.10;;;3.10;89.10;;;;;;4905853;29;20723;-50
2022/01/08 07:55:06;;;;;;;8.60;4.67;;;3.10;88.80;;;;;;4915872;29;20465;-50
2022/01/08 07:57:33;;;;;;;7.83;4.13;;;3.00;88.80;;;;;;4915612;29;20839;-50
2022/01/08 08:00:00;;;;;;;4.63;3.47;;;3.00;89.20;;;;;;4906421;29;20540;-50
2022/01/08 08:02:26;;;;;;;5.20;3.43;;;3.00;89.10;;;;;;4905338;29;20462;-50
2022/01/08 08:04:53;;;;;;;5.17;3.53;;;3.10;88.80;;;;;;4905208;29;20469;-51
2022/01/08 08:07:36;;;;;;;6.40;3.93;;;3.10;88.30;;;;;;4902380;29;20449;-50
2022/01/08 08:10:10;;;;;;;5.03;3.10;;;3.10;88.60;;;;;;4905283;29;20548;-50
2022/01/08 08:12:41;;;;;;;4.80;3.60;;;3.10;88.80;;;;;;4903283;29;20453;-51
2022/01/08 08:15:09;;;;;;;6.93;3.63;;;3.10;88.80;;;;;;4902677;29;20497;-50
2022/01/08 08:17:36;;;;;;;5.80;3.57;;;3.10;88.90;;;;;;4916203;29;20858;-50
2022/01/08 08:20:04;;;;;;;6.57;3.60;;;3.10;89.10;;;;;;4903733;29;20528;-52
2022/01/08 08:22:31;;;;;;;3.87;3.30;;;3.10;88.30;;;;;;4903504;29;20853;-50
2022/01/08 08:24:59;;;;;;;3.80;3.20;;;3.10;88.00;;;;;;4900336;29;20913;-51
2022/01/08 08:27:26;;;;;;;4.57;2.80;;;3.10;88.20;;;;;;4923528;29;20545;-51
2022/01/08 08:29:53;;;;;;;3.83;3.03;;;3.10;87.90;;;;;;4903459;29;20456;-50
2022/01/08 08:32:20;;;;;;;4.70;3.00;;;3.10;88.00;;;;;;4905645;29;20453;-50
2022/01/08 08:34:47;;;;;;;3.60;2.77;;;3.10;87.90;;;;;;4918845;29;20445;-50
2022/01/08 08:37:14;;;;;;;8.60;2.80;;;3.10;88.10;;;;;;4900048;29;20936;-50
2022/01/08 08:39:41;;;;;;;4.93;3.00;;;3.10;88.50;;;;;;4906529;29;20477;-50
2022/01/08 08:42:07;;;;;;;3.80;3.13;;;3.10;87.80;;;;;;4902200;29;20959;-49
2022/01/08 08:44:34;;;;;;;3.83;2.80;;;3.10;87.60;;;;;;4903488;29;20500;-50
2022/01/08 08:47:03;;;;;;;3.10;2.90;;;3.10;87.40;;;;;;4904652;29;20866;-51
2022/01/08 08:49:31;;;;;;;6.50;2.93;;;3.10;87.30;;;;;;4909853;29;20959;-51
2022/01/08 08:51:57;;;;;;;7.57;2.93;;;3.00;87.00;;;;;;4915017;29;20540;-50
2022/01/08 08:54:24;;;;;;;3.80;2.67;;;3.00;87.30;;;;;;4919676;29;20481;-51
2022/01/08 08:56:51;;;;;;;3.33;2.47;;;3.00;88.00;;;;;;4901915;29;20493;-51
2022/01/08 08:59:17;;;;;;;6.53;3.00;;;3.00;88.20;;;;;;4902964;29;20964;-51
2022/01/08 09:01:45;;;;;;;5.33;3.17;;;3.00;88.10;;;;;;4904604;29;20817;-51
2022/01/08 09:04:12;;;;;;;4.77;2.97;;;3.00;87.80;;;;;;4905961;29;20991;-51
2022/01/08 09:06:39;;;;;;;3.80;3.00;;;3.00;87.40;;;;;;4901413;29;20984;-51
2022/01/08 09:09:05;;;;;;;5.73;5.13;;;3.00;87.40;;;;;;4905314;29;20464;-52
2022/01/08 09:11:32;;;;;;;4.93;3.10;;;3.00;87.50;;;;;;4908968;29;20472;-51
2022/01/08 09:13:59;;;;;;;3.33;2.93;;;3.10;87.60;;;;;;4902364;29;20459;-51
2022/01/08 09:16:27;;;;;;;3.47;3.17;;;3.00;87.20;;;;;;4907141;29;20551;-51
2022/01/08 09:18:53;;;;;;;6.70;3.57;;;3.00;87.30;;;;;;4919850;29;20449;-51
2022/01/08 09:21:20;;;;;;;3.27;2.37;;;3.10;87.00;;;;;;4908985;29;20456;-51
2022/01/08 09:23:47;;;;;;;3.60;2.77;;;3.10;86.90;;;;;;4910694;29;20492;-51
2022/01/08 09:26:14;;;;;;;3.97;3.20;;;3.10;87.00;;;;;;4911792;29;20493;-51
2022/01/08 09:28:41;;;;;;;5.90;3.57;;;3.10;87.10;;;;;;4907914;29;20472;-51
2022/01/08 09:31:08;;;;;;;9.67;3.27;;;3.10;87.10;;;;;;4906569;29;20449;-51
2022/01/08 09:33:36;;;;;;;5.90;3.40;;;3.10;87.30;;;;;;4919731;29;20467;-51
2022/01/08 09:36:03;;;;;;;5.20;3.37;;;3.10;87.30;;;;;;4904661;29;20465;-51
2022/01/08 09:38:31;;;;;;;3.77;3.27;;;3.10;87.70;;;;;;4905295;29;20580;-54
2022/01/08 09:40:58;;;;;;;6.50;4.03;;;3.20;87.50;;;;;;4904395;29;20457;-53
2022/01/08 09:43:25;;;;;;;14.77;3.90;;;3.30;87.10;;;;;;4902890;29;20472;-53
2022/01/08 09:45:52;;;;;;;3.67;2.83;;;3.30;85.60;;;;;;4903801;29;21026;-53
2022/01/08 09:48:19;;;;;;;7.17;3.20;;;3.30;85.90;;;;;;4902663;29;20454;-53
2022/01/08 09:50:46;;;;;;;4.67;3.00;;;3.30;85.80;;;;;;4906639;29;20466;-52
2022/01/08 09:53:13;;;;;;;3.10;2.70;;;3.30;85.60;;;;;;4904323;29;20976;-52
2022/01/08 09:55:40;;;;;;;4.10;3.43;;;3.30;85.90;;;;;;4905789;29;20458;-53
2022/01/08 09:58:07;;;;;;;4.20;3.03;;;3.30;86.00;;;;;;4906389;29;20541;-53
2022/01/08 10:00:36;;;;;;;7.87;5.93;;;3.30;86.20;;;;;;4908463;29;20918;-53
2022/01/08 10:03:33;;;;;;;5.90;4.67;;;3.30;86.20;;;;;;4888362;29;20484;-53
2022/01/08 10:06:01;;;;;;;7.87;4.30;;;3.30;86.30;;;;;;4894497;29;20852;-53
2022/01/08 10:08:43;;;;;;;7.40;3.70;;;3.40;86.00;;;;;;4906136;29;20460;-53
2022/01/08 10:11:12;;;;;;;4.90;3.00;;;3.50;85.60;;;;;;4904709;29;20981;-54
2022/01/08 10:13:41;;;;;;;6.70;3.60;;;3.50;85.80;;;;;;4922204;29;20943;-53
2022/01/08 10:19:00;;;;;;;6.23;3.97;;;3.60;86.50;;;;;;4913906;29;20538;-53
2022/01/08 10:21:28;;;;;;;6.67;3.80;;;3.70;85.90;;;;;;4897020;29;20461;-53
2022/01/08 10:23:58;;;;;;;5.90;4.20;;;3.70;85.10;;;;;;4908476;29;20491;-53
2022/01/08 10:26:33;;;;;;;6.17;4.10;;;3.70;86.20;;;;;;4901797;29;20504;-53
2022/01/08 10:29:03;;;;;;;9.63;5.10;;;3.80;85.50;;;;;;4910652;29;20446;-53
2022/01/08 10:31:41;;;;;;;7.33;5.83;;;3.80;84.80;;;;;;4901169;29;20475;-53
2022/01/08 10:34:14;;;;;;;7.43;5.77;;;3.80;84.10;;;;;;4903367;29;20778;-53
2022/01/08 10:36:45;;;;;;;7.73;5.77;;;3.70;84.20;;;;;;4903688;29;20521;-51
2022/01/08 10:39:17;;;;;;;9.00;4.93;;;3.70;84.00;;;;;;4908630;29;20461;-50
2022/01/08 10:41:46;;;;;;;5.10;3.90;;;3.70;84.60;;;;;;4904703;29;20460;-51
2022/01/08 10:44:24;;;;;;;10.93;4.33;;;3.60;84.40;;;;;;4906302;29;20458;-50
2022/01/08 10:46:57;;;;;;;6.40;4.20;;;3.50;84.80;;;;;;4901116;29;20974;-51
2022/01/08 10:49:35;;;;;;;6.23;4.37;;;3.50;85.60;;;;;;4919842;29;20461;-51
2022/01/08 10:52:10;;;;;;;5.70;3.90;;;3.50;84.90;;;;;;4904095;29;20456;-51
2022/01/08 10:55:07;;;;;;;5.17;3.77;;;3.40;85.10;;;;;;4909770;29;20461;-51
2022/01/08 10:57:39;;;;;;;9.13;4.43;;;3.40;85.00;;;;;;4897868;29;20548;-50
2022/01/08 11:00:12;;;;;;;10.20;4.20;;;3.40;85.40;;;;;;4906845;29;20464;-51
2022/01/08 11:02:43;;;;;;;9.90;4.20;;;3.40;86.60;;;;;;4918874;29;20457;-51
2022/01/08 11:05:11;;;;;;;6.07;4.40;;;3.50;86.70;;;;;;4920320;29;20446;-50
2022/01/08 11:07:41;;;;;;;6.80;4.70;;;3.50;87.00;;;;;;4902857;29;20848;-51
2022/01/08 11:10:16;;;;;;;7.83;4.93;;;3.50;86.60;;;;;;4889809;29;20464;-51
2022/01/08 11:12:45;;;;;;;8.30;4.20;;;3.60;86.20;;;;;;4922299;29;20455;-51
2022/01/08 11:17:56;;;;;;;10.00;5.33;;;3.60;85.80;;;;;;4908037;29;20456;-50
2022/01/08 11:20:45;;;;;;;7.50;3.80;;;3.60;85.10;;;;;;4903990;29;20461;-51
2022/01/08 11:23:12;;;;;;;8.03;4.30;;;3.60;84.80;;;;;;4901145;29;20903;-51
2022/01/08 11:25:41;;;;;;;5.13;3.70;;;3.60;85.50;;;;;;4902685;29;20487;-51
2022/01/08 11:28:10;;;;;;;4.40;3.20;;;3.60;85.70;;;;;;4904190;29;20492;-51
2022/01/08 11:30:42;;;;;;;5.03;4.53;;;3.60;85.20;;;;;;4905650;29;20449;-51
2022/01/08 11:33:23;;;;;;;6.93;3.80;;;3.60;84.70;;;;;;4908798;29;20457;-51
2022/01/08 11:35:52;;;;;;;6.03;3.80;;;3.60;84.70;;;;;;4907125;29;20456;-50
2022/01/08 11:38:21;;;;;;;5.40;3.57;;;3.60;85.50;;;;;;4904213;29;20454;-50
2022/01/08 11:40:50;;;;;;;7.40;3.63;;;3.60;84.60;;;;;;4906234;29;20467;-50
2022/01/08 11:43:19;;;;;;;8.80;3.93;;;3.70;85.60;;;;;;4904125;29;20696;-49
2022/01/08 11:45:47;;;;;;;14.83;8.50;;;3.70;84.90;;;;;;4902819;29;20509;-50
2022/01/08 11:48:17;;;;;;;11.70;5.23;;;3.70;85.20;;;;;;4919528;29;20449;-50
2022/01/08 11:50:54;;;;;;;4.63;3.40;;;3.70;86.10;;;;;;4921621;29;20528;-50
2022/01/08 11:53:27;;;;;;;6.30;3.40;;;3.70;84.80;;;;;;4902945;29;20449;-49
2022/01/08 11:55:58;;;;;;;8.40;3.80;;;3.70;85.30;;;;;;4902678;29;20461;-49
2022/01/08 11:58:33;;;;;;;7.33;4.17;;;3.70;85.10;;;;;;4922240;29;20818;-49
2022/01/08 12:01:04;;;;;;;8.67;3.90;;;3.70;86.00;;;;;;4903722;29;20486;-49
2022/01/08 12:03:38;;;;;;;7.40;4.57;;;3.70;86.00;;;;;;4905779;29;20894;-49
2022/01/08 12:06:32;;;;;;;6.70;5.30;;;3.70;86.80;;;;;;4916378;29;21005;-49
2022/01/08 12:09:08;;;;;;;7.17;3.90;;;3.80;86.30;;;;;;4905162;29;20483;-49
2022/01/08 12:11:46;;;;;;;6.90;4.20;;;3.90;85.90;;;;;;4902087;29;20464;-49
2022/01/08 12:14:42;;;;;;;6.33;3.53;;;3.90;86.10;;;;;;4918907;29;20484;-50
2022/01/08 12:17:15;;;;;;;5.77;4.70;;;4.00;85.20;;;;;;4902181;29;20967;-51
2022/01/08 12:19:54;;;;;;;6.30;4.50;;;3.90;84.80;;;;;;4903702;29;20935;-49
2022/01/08 12:22:21;;;;;;;6.90;3.70;;;3.90;84.90;;;;;;4900155;29;20449;-50
2022/01/08 12:24:51;;;;;;;5.17;4.23;;;3.90;84.90;;;;;;4901280;29;20504;-50
2022/01/08 12:27:46;;;;;;;7.10;5.13;;;3.90;86.00;;;;;;4902654;29;20493;-50
2022/01/08 12:30:16;;;;;;;10.33;4.30;;;4.00;86.10;;;;;;4896471;29;20516;-50
2022/01/08 12:32:50;;;;;;;6.20;4.53;;;4.00;85.40;;;;;;4904938;29;20465;-50
2022/01/08 12:35:25;;;;;;;8.77;5.00;;;4.00;85.40;;;;;;4901401;29;20818;-50
2022/01/08 12:38:02;;;;;;;5.73;4.90;;;4.00;86.30;;;;;;4900342;29;21004;-49
2022/01/08 12:40:52;;;;;;;12.60;4.80;;;4.10;86.30;;;;;;4905610;29;20859;-50
2022/01/08 12:43:31;;;;;;;5.50;3.90;;;4.10;84.50;;;;;;4900208;29;20953;-49
2022/01/08 12:46:17;;;;;;;4.67;4.00;;;4.10;83.60;;;;;;4902640;29;20491;-50
2022/01/08 12:49:03;;;;;;;5.83;4.07;;;4.10;84.90;;;;;;4899212;29;20545;-50
2022/01/08 12:51:48;;;;;;;8.83;4.90;;;4.10;84.80;;;;;;4903214;29;20455;-50
2022/01/08 12:54:17;;;;;;;6.10;3.63;;;4.10;85.00;;;;;;4901743;29;20921;-50
2022/01/08 12:56:53;;;;;;;6.43;3.70;;;4.10;84.10;;;;;;4902571;29;20465;-50
2022/01/08 12:59:28;;;;;;;4.47;3.70;;;4.10;84.90;;;;;;4903744;29;20460;-50
2022/01/08 13:01:55;;;;;;;9.33;3.53;;;4.20;84.70;;;;;;4901476;29;20841;-50
2022/01/08 13:04:23;;;;;;;6.63;3.77;;;4.20;85.10;;;;;;4916216;29;20454;-51
2022/01/08 13:06:50;;;;;;;4.60;3.57;;;4.20;83.80;;;;;;4898858;29;20588;-51
2022/01/08 13:09:17;;;;;;;6.33;3.40;;;4.20;84.40;;;;;;4906047;29;20463;-52
2022/01/08 13:11:45;;;;;;;3.80;2.90;;;4.20;84.90;;;;;;4902788;29;20923;-51
2022/01/08 13:14:17;;;;;;;5.67;3.87;;;4.20;83.60;;;;;;4904537;29;20463;-52
2022/01/08 13:16:50;;;;;;;4.03;3.63;;;4.20;84.70;;;;;;4908818;29;21001;-52
2022/01/08 13:19:18;;;;;;;3.83;3.43;;;4.20;85.10;;;;;;4901727;29;20532;-52
2022/01/08 13:21:50;;;;;;;4.90;3.70;;;4.20;84.20;;;;;;4918330;29;20460;-52
2022/01/08 13:24:26;;;;;;;3.77;3.33;;;4.20;84.30;;;;;;4919363;29;20493;-52
2022/01/08 13:26:54;;;;;;;4.27;3.87;;;4.20;85.20;;;;;;4904919;29;20495;-52
2022/01/08 13:29:23;;;;;;;5.23;3.67;;;4.20;84.90;;;;;;4905884;29;20521;-52
2022/01/08 13:32:11;;;;;;;4.10;3.20;;;4.20;84.80;;;;;;4920217;29;20884;-52